| time (UTC) | temp F | wind direction | speed MPH | gust MPH | rain 1hr in | rain 24hr in | rain mn in | humidity % | barometer mb |
| 20260906111404 | 77 | 175 | 8.0 | 12.0 | 0.00 | 0.00 | 0.00 | 80 | 1012.5 |
| 20260906110404 | 77 | 164 | 7.0 | 13.0 | 0.00 | 0.00 | 0.00 | 81 | 1012.3 |
| 20260906105425 | 78 | 160 | 8.0 | 15.0 | 0.00 | 0.00 | 0.00 | 81 | 1012.3 |
| 20260906104404 | 78 | 157 | 5.0 | 12.0 | 0.00 | 0.00 | 0.00 | 82 | 1012.1 |
| 20260906103403 | 78 | 153 | 8.0 | 15.0 | 0.00 | 0.00 | 0.00 | 82 | 1012.2 |
| 20260906102404 | 78 | 136 | 7.0 | 13.0 | 0.00 | 0.00 | 0.00 | 82 | 1012.4 |
| 20260906101404 | 78 | 153 | 5.0 | 12.0 | 0.00 | 0.00 | 0.00 | 82 | 1012.3 |
| 20260906100403 | 78 | 144 | 5.0 | 12.0 | 0.00 | 0.00 | 0.00 | 82 | 1012.3 |
| 20260906095404 | 78 | 147 | 5.0 | 9.0 | 0.00 | 0.00 | 0.00 | 82 | 1012.1 |
| 20260906092904 | 76 | 104 | 4.0 | 10.0 | 0.00 | 0.00 | 0.00 | 88 | 1012.0 |
| 20260906091924 | 76 | 46 | 0.0 | 0.0 | 0.00 | 0.00 | 0.00 | 88 | 1011.5 |
| 20260906090904 | 76 | 46 | 0.0 | 0.0 | 0.00 | 0.00 | 0.00 | 88 | 1011.5 |
| 20260906085904 | 76 | 46 | 0.0 | 0.0 | 0.00 | 0.00 | 0.00 | 88 | 1011.4 |
| 20260906084904 | 76 | 46 | 0.0 | 0.0 | 0.00 | 0.00 | 0.00 | 88 | 1011.5 |
| 20260906083904 | 76 | 46 | 0.0 | 0.0 | 0.00 | 0.00 | 0.00 | 88 | 1011.4 |
| 20260906082903 | 76 | 46 | 0.0 | 0.0 | 0.00 | 0.00 | 0.00 | 88 | 1011.3 |
| 20260906081904 | 76 | 46 | 0.0 | 0.0 | 0.00 | 0.00 | 0.00 | 88 | 1011.4 |
| 20260906080903 | 76 | 46 | 0.0 | 2.0 | 0.00 | 0.00 | 0.00 | 88 | 1011.2 |
| 20260906075904 | 76 | 47 | 1.0 | 2.0 | 0.00 | 0.00 | 0.00 | 88 | 1011.2 |
| 20260906074904 | 77 | 47 | 0.0 | 4.0 | 0.00 | 0.00 | 0.00 | 87 | 1011.0 |
| 20260906073903 | 77 | 87 | 0.0 | 0.0 | 0.00 | 0.00 | 0.00 | 87 | 1011.0 |
| 20260906072904 | 77 | 87 | 0.0 | 0.0 | 0.00 | 0.00 | 0.00 | 87 | 1011.2 |
| 20260906071903 | 77 | 87 | 0.0 | 0.0 | 0.00 | 0.00 | 0.00 | 87 | 1011.0 |
| 20260906070904 | 77 | 87 | 0.0 | 0.0 | 0.00 | 0.00 | 0.00 | 87 | 1011.2 |
| 20260906065904 | 77 | 87 | 0.0 | 0.0 | 0.00 | 0.00 | 0.00 | 86 | 1010.9 |
| 20260906064903 | 77 | 87 | 0.0 | 0.0 | 0.00 | 0.00 | 0.00 | 86 | 1011.1 |
| 20260906063904 | 78 | 87 | 0.0 | 0.0 | 0.00 | 0.00 | 0.00 | 86 | 1011.2 |
| 20260906062903 | 78 | 87 | 0.0 | 0.0 | 0.00 | 0.00 | 0.00 | 86 | 1011.3 |
| 20260906061904 | 78 | 87 | 0.0 | 0.0 | 0.00 | 0.00 | 0.00 | 86 | 1011.3 |
| 20260906060904 | 78 | 87 | 0.0 | 0.0 | 0.00 | 0.00 | 0.00 | 85 | 1011.4 |
| 20260906055903 | 78 | 87 | 0.0 | 0.0 | 0.00 | 0.00 | 0.00 | 85 | 1011.4 |
| 20260906054904 | 78 | 87 | 0.0 | 0.0 | 0.00 | 0.00 | 0.00 | 85 | 1011.7 |
| 20260906053903 | 78 | 87 | 0.0 | 0.0 | 0.00 | 0.00 | 0.00 | 84 | 1011.6 |
| 20260906052904 | 78 | 87 | 0.0 | 0.0 | 0.00 | 0.00 | 0.00 | 84 | 1011.7 |
| 20260906051904 | 78 | 87 | 0.0 | 0.0 | 0.00 | 0.00 | 0.00 | 83 | 1011.6 |
| 20260906050924 | 79 | 87 | 0.0 | 0.0 | 0.00 | 0.00 | 0.00 | 83 | 1011.8 |
| 20260906045946 | 79 | 87 | 0.0 | 0.0 | 0.00 | 0.00 | 0.00 | 82 | 1011.5 |
| 20260906044904 | 79 | 87 | 0.0 | 0.0 | 0.00 | 0.00 | 0.00 | 83 | 1011.9 |
| 20260906043946 | 79 | 87 | 0.0 | 0.0 | 0.00 | 0.00 | 0.00 | 82 | 1011.6 |
| 20260906042903 | 80 | 87 | 0.0 | 0.0 | 0.00 | 0.00 | 0.00 | 81 | 1011.8 |
| 20260906041904 | 80 | 87 | 0.0 | 0.0 | 0.00 | 0.00 | 0.00 | 80 | 1011.8 |
| 20260906035404 | 80 | 87 | 0.0 | 0.0 | 0.00 | 0.00 | 0.00 | 80 | 1011.6 |
| 20260906034403 | 80 | 87 | 0.0 | 0.0 | 0.00 | 0.00 | 0.00 | 79 | 1011.5 |
| 20260906033403 | 81 | 87 | 0.0 | 0.0 | 0.00 | 0.00 | 0.00 | 78 | 1011.5 |
| 20260906032403 | 82 | 87 | 0.0 | 1.0 | 0.00 | 0.00 | 0.00 | 77 | 1011.6 |
| 20260906031404 | 82 | 87 | 0.0 | 0.0 | 0.00 | 0.00 | 0.00 | 76 | 1011.4 |
| 20260906030425 | 82 | 87 | 0.0 | 0.0 | 0.00 | 0.00 | 0.00 | 76 | 1011.3 |
| 20260906025403 | 82 | 87 | 0.0 | 0.0 | 0.00 | 0.00 | 0.00 | 75 | 1011.3 |
| 20260906024404 | 82 | 87 | 0.0 | 0.0 | 0.00 | 0.00 | 0.00 | 74 | 1011.2 |
| 20260906023425 | 83 | 87 | 0.0 | 0.0 | 0.00 | 0.00 | 0.00 | 73 | 1011.2 |
| 20260906022404 | 83 | 87 | 0.0 | 0.0 | 0.00 | 0.00 | 0.00 | 72 | 1011.2 |
| 20260906021403 | 83 | 87 | 0.0 | 0.0 | 0.00 | 0.00 | 0.00 | 72 | 1011.2 |
| 20260906020404 | 84 | 87 | 0.0 | 0.0 | 0.00 | 0.00 | 0.00 | 71 | 1011.0 |
| 20260906015424 | 84 | 87 | 0.0 | 0.0 | 0.00 | 0.00 | 0.00 | 71 | 1011.0 |
| 20260906014404 | 85 | 87 | 0.0 | 0.0 | 0.00 | 0.00 | 0.00 | 69 | 1010.9 |
| 20260906013403 | 85 | 87 | 0.0 | 1.0 | 0.00 | 0.00 | 0.00 | 68 | 1010.7 |
| 20260906012404 | 85 | 87 | 0.0 | 2.0 | 0.00 | 0.00 | 0.00 | 67 | 1010.6 |
| 20260906011404 | 86 | 87 | 1.0 | 2.0 | 0.00 | 0.00 | 0.00 | 66 | 1010.6 |
| 20260906010403 | 87 | 87 | 0.0 | 2.0 | 0.00 | 0.00 | 0.00 | 63 | 1010.5 |
| 20260906005404 | 89 | 87 | 0.0 | 3.0 | 0.00 | 0.00 | 0.00 | 61 | 1010.5 |
| 20260906004403 | 90 | 87 | 1.0 | 3.0 | 0.00 | 0.00 | 0.00 | 59 | 1010.4 |
| 20260906003404 | 91 | 87 | 1.0 | 3.0 | 0.00 | 0.00 | 0.00 | 57 | 1010.2 |
| 20260906002404 | 92 | 87 | 2.0 | 4.0 | 0.00 | 0.00 | 0.00 | 56 | 1010.3 |
| 20260906001424 | 92 | 86 | 2.0 | 5.0 | 0.00 | 0.00 | 0.00 | 54 | 1010.3 |
| 20260906000403 | 93 | 87 | 2.0 | 4.0 | 0.00 | 0.00 | 0.00 | 53 | 1010.3 |
| 20260905235403 | 94 | 87 | 2.0 | 3.0 | 0.00 | 0.00 | 0.00 | 52 | 1010.4 |
| 20260905234424 | 94 | 87 | 1.0 | 4.0 | 0.00 | 0.00 | 0.00 | 50 | 1010.5 |
| 20260905233404 | 95 | 86 | 2.0 | 3.0 | 0.00 | 0.00 | 0.00 | 48 | 1010.6 |
| 20260905232403 | 95 | 85 | 2.0 | 4.0 | 0.00 | 0.00 | 0.00 | 48 | 1010.6 |
| 20260905231404 | 96 | 80 | 2.0 | 5.0 | 0.00 | 0.00 | 0.00 | 46 | 1010.6 |
| 20260905230404 | 96 | 77 | 1.0 | 6.0 | 0.00 | 0.00 | 0.00 | 45 | 1010.6 |
| 20260905225403 | 97 | 92 | 2.0 | 4.0 | 0.00 | 0.00 | 0.00 | 44 | 1010.5 |
| 20260905224404 | 97 | 147 | 3.0 | 5.0 | 0.00 | 0.00 | 0.00 | 44 | 1010.5 |
| 20260905223403 | 97 | 146 | 1.0 | 4.0 | 0.00 | 0.00 | 0.00 | 43 | 1010.6 |
| 20260905222446 | 98 | 99 | 3.0 | 8.0 | 0.00 | 0.00 | 0.00 | 44 | 1010.6 |
| 20260905221404 | 99 | 101 | 5.0 | 11.0 | 0.00 | 0.00 | 0.00 | 44 | 1010.6 |
| 20260905220424 | 98 | 169 | 2.0 | 5.0 | 0.00 | 0.00 | 0.00 | 43 | 1010.7 |
| 20260905215403 | 98 | 175 | 2.0 | 6.0 | 0.00 | 0.00 | 0.00 | 43 | 1010.7 |
| 20260905214403 | 99 | 84 | 2.0 | 8.0 | 0.00 | 0.00 | 0.00 | 40 | 1010.8 |
| 20260905213403 | 99 | 26 | 3.0 | 8.0 | 0.00 | 0.00 | 0.00 | 41 | 1010.8 |
| 20260905212404 | 99 | 65 | 5.0 | 9.0 | 0.00 | 0.00 | 0.00 | 42 | 1010.9 |
| 20260905211403 | 99 | 27 | 3.0 | 10.0 | 0.00 | 0.00 | 0.00 | 43 | 1010.8 |
| 20260905210404 | 100 | 39 | 3.0 | 4.0 | 0.00 | 0.00 | 0.00 | 43 | 1010.8 |
| 20260905205403 | 100 | 35 | 3.0 | 7.0 | 0.00 | 0.00 | 0.00 | 45 | 1010.7 |
| 20260905204403 | 99 | 100 | 5.0 | 9.0 | 0.00 | 0.00 | 0.00 | 41 | 1010.9 |
| 20260905203425 | 99 | 91 | 1.0 | 6.0 | 0.00 | 0.00 | 0.00 | 44 | 1011.2 |
| 20260905202404 | 99 | 241 | 3.0 | 8.0 | 0.00 | 0.00 | 0.00 | 46 | 1011.2 |
| 20260905201403 | 99 | 110 | 3.0 | 9.0 | 0.00 | 0.00 | 0.00 | 41 | 1011.4 |
| 20260905200404 | 98 | 124 | 2.0 | 9.0 | 0.00 | 0.00 | 0.00 | 44 | 1011.5 |
| 20260905195403 | 97 | 98 | 5.0 | 8.0 | 0.00 | 0.00 | 0.00 | 46 | 1011.9 |
| 20260905193424 | 99 | 134 | 5.0 | 9.0 | 0.00 | 0.00 | 0.00 | 45 | 1012.1 |
| 20260905192404 | 99 | 121 | 3.0 | 11.0 | 0.00 | 0.00 | 0.00 | 47 | 1012.3 |
| 20260905191403 | 99 | 54 | 5.0 | 10.0 | 0.00 | 0.00 | 0.00 | 46 | 1012.6 |
| 20260905190404 | 99 | 63 | 4.0 | 11.0 | 0.00 | 0.00 | 0.00 | 44 | 1012.7 |
| 20260905185403 | 99 | 105 | 8.0 | 12.0 | 0.00 | 0.00 | 0.00 | 43 | 1012.8 |
| 20260905184404 | 99 | 72 | 3.0 | 10.0 | 0.00 | 0.00 | 0.00 | 44 | 1012.7 |
| 20260905183425 | 99 | 59 | 6.0 | 9.0 | 0.00 | 0.00 | 0.00 | 47 | 1012.9 |
| 20260905182403 | 98 | 55 | 5.0 | 11.0 | 0.00 | 0.00 | 0.00 | 47 | 1013.1 |
| 20260905181403 | 98 | 92 | 8.0 | 12.0 | 0.00 | 0.00 | 0.00 | 47 | 1012.9 |
| 20260905180425 | 98 | 358 | 5.0 | 13.0 | 0.00 | 0.00 | 0.00 | 48 | 1013.0 |
| 20260905175403 | 97 | 65 | 4.0 | 10.0 | 0.00 | 0.00 | 0.00 | 49 | 1013.1 |
| 20260905174424 | 97 | 199 | 2.0 | 10.0 | 0.00 | 0.00 | 0.00 | 53 | 1013.1 |
| 20260905173404 | 97 | 156 | 4.0 | 8.0 | 0.00 | 0.00 | 0.00 | 51 | 1013.3 |
| 20260905172403 | 96 | 116 | 3.0 | 8.0 | 0.00 | 0.00 | 0.00 | 51 | 1013.4 |
| 20260905171404 | 96 | 23 | 2.0 | 9.0 | 0.00 | 0.00 | 0.00 | 50 | 1013.4 |
| 20260905170403 | 96 | 150 | 3.0 | 8.0 | 0.00 | 0.00 | 0.00 | 53 | 1013.8 |
| 20260905165403 | 96 | 182 | 4.0 | 7.0 | 0.00 | 0.00 | 0.00 | 53 | 1013.9 |
| 20260905164404 | 96 | 153 | 5.0 | 8.0 | 0.00 | 0.00 | 0.00 | 54 | 1014.0 |
| 20260905163403 | 95 | 86 | 5.0 | 8.0 | 0.00 | 0.00 | 0.00 | 55 | 1014.1 |
| 20260905162403 | 95 | 66 | 2.0 | 7.0 | 0.00 | 0.00 | 0.00 | 55 | 1014.2 |
| 20260905161403 | 94 | 194 | 1.0 | 5.0 | 0.00 | 0.00 | 0.00 | 56 | 1014.2 |
| 20260905160403 | 94 | 135 | 3.0 | 7.0 | 0.00 | 0.00 | 0.00 | 56 | 1014.2 |
| 20260905155404 | 94 | 313 | 2.0 | 4.0 | 0.00 | 0.00 | 0.00 | 56 | 1014.3 |
| 20260905154403 | 93 | 210 | 3.0 | 4.0 | 0.00 | 0.00 | 0.00 | 58 | 1014.3 |
| 20260905153404 | 93 | 280 | 2.0 | 3.0 | 0.00 | 0.00 | 0.00 | 57 | 1014.4 |
| 20260905152403 | 92 | 203 | 2.0 | 4.0 | 0.00 | 0.00 | 0.00 | 59 | 1014.4 |
| 20260905151403 | 92 | 201 | 3.0 | 5.0 | 0.00 | 0.00 | 0.00 | 63 | 1014.3 |
| 20260905150403 | 91 | 129 | 2.0 | 4.0 | 0.00 | 0.00 | 0.00 | 65 | 1014.5 |
| 20260905145403 | 89 | 146 | 1.0 | 4.0 | 0.00 | 0.00 | 0.00 | 66 | 1014.3 |
| 20260905144425 | 89 | 149 | 1.0 | 3.0 | 0.00 | 0.00 | 0.00 | 65 | 1014.4 |
| 20260905143403 | 89 | 149 | 1.0 | 3.0 | 0.00 | 0.00 | 0.00 | 64 | 1014.3 |
| 20260905142403 | 89 | 139 | 2.0 | 3.0 | 0.00 | 0.00 | 0.00 | 65 | 1014.3 |
| 20260905141404 | 88 | 153 | 3.0 | 4.0 | 0.00 | 0.00 | 0.00 | 70 | 1014.3 |
| 20260905140403 | 86 | 169 | 1.0 | 4.0 | 0.00 | 0.00 | 0.00 | 72 | 1014.2 |
| 20260905135403 | 85 | 169 | 2.0 | 4.0 | 0.00 | 0.00 | 0.00 | 74 | 1014.3 |
| 20260905134404 | 85 | 169 | 1.0 | 2.0 | 0.00 | 0.00 | 0.00 | 76 | 1014.3 |
| 20260905133403 | 83 | 169 | 1.0 | 4.0 | 0.00 | 0.00 | 0.00 | 78 | 1014.4 |
| 20260905132403 | 82 | 169 | 2.0 | 4.0 | 0.00 | 0.00 | 0.00 | 78 | 1014.2 |
| 20260905131425 | 81 | 169 | 2.0 | 4.0 | 0.00 | 0.00 | 0.00 | 81 | 1014.4 |
| 20260905130403 | 80 | 169 | 2.0 | 4.0 | 0.00 | 0.00 | 0.00 | 82 | 1014.3 |
| 20260905125445 | 78 | 169 | 2.0 | 4.0 | 0.00 | 0.00 | 0.00 | 85 | 1014.1 |
| 20260905124403 | 77 | 169 | 2.0 | 7.0 | 0.00 | 0.00 | 0.00 | 87 | 1014.3 |
| 20260905123403 | 75 | 116 | 1.0 | 3.0 | 0.00 | 0.00 | 0.00 | 89 | 1014.1 |
| 20260905122404 | 75 | 115 | 0.0 | 0.0 | 0.00 | 0.00 | 0.00 | 90 | 1014.1 |
| 20260905121403 | 74 | 115 | 0.0 | 1.0 | 0.00 | 0.00 | 0.00 | 90 | 1014.0 |
| 20260905120404 | 74 | 115 | 0.0 | 2.0 | 0.00 | 0.00 | 0.00 | 90 | 1014.0 |
| 20260905115403 | 74 | 115 | 1.0 | 2.0 | 0.00 | 0.00 | 0.00 | 91 | 1013.7 |
| 20260905114403 | 74 | 115 | 0.0 | 1.0 | 0.00 | 0.00 | 0.00 | 91 | 1013.7 |
| 20260905113404 | 74 | 115 | 0.0 | 2.0 | 0.00 | 0.00 | 0.00 | 91 | 1013.6 |
| 20260905112403 | 74 | 115 | 0.0 | 0.0 | 0.00 | 0.00 | 0.00 | 91 | 1013.5 |